createdAt,value
2018-04-13T00:00:19.938Z,24.04
2018-04-13T00:02:45.887Z,24.05
2018-04-13T00:05:11.905Z,24.04
2018-04-13T00:07:37.923Z,24.05
2018-04-13T00:10:03.867Z,24.03
2018-04-13T00:12:29.855Z,24.04
2018-04-13T00:14:55.832Z,24.03
2018-04-13T00:17:21.820Z,24.04
2018-04-13T00:19:47.845Z,24.02
2018-04-13T00:22:13.822Z,24.02
2018-04-13T00:24:39.810Z,24.02
2018-04-13T00:27:05.792Z,24.01
2018-04-13T00:29:31.821Z,24.01
2018-04-13T00:31:57.813Z,24.01
2018-04-13T00:34:23.794Z,24.00
2018-04-13T00:36:49.775Z,23.99
2018-04-13T00:39:15.787Z,23.99
2018-04-13T00:41:41.743Z,23.99
2018-04-13T00:44:07.724Z,23.98
2018-04-13T00:46:33.741Z,23.97
2018-04-13T00:48:59.726Z,23.97
2018-04-13T00:51:25.672Z,23.97
2018-04-13T00:53:51.689Z,23.97
2018-04-13T00:56:17.698Z,23.97
2018-04-13T00:58:43.675Z,23.96
2018-04-13T01:01:09.699Z,23.97
2018-04-13T01:03:35.682Z,23.96
2018-04-13T01:06:01.699Z,23.97
2018-04-13T01:08:27.712Z,23.96
2018-04-13T01:10:53.696Z,23.96
2018-04-13T01:13:19.693Z,23.95
2018-04-13T01:15:45.654Z,23.96
2018-04-13T01:18:11.634Z,23.96
2018-04-13T01:20:37.621Z,23.95
2018-04-13T01:23:03.600Z,23.95
2018-04-13T01:25:29.580Z,23.95
2018-04-13T01:27:55.594Z,23.95
2018-04-13T01:30:21.539Z,23.94
2018-04-13T01:32:47.519Z,23.93
2018-04-13T01:35:13.496Z,23.93
2018-04-13T01:37:39.480Z,23.93
2018-04-13T01:40:05.529Z,23.93
2018-04-13T01:42:31.504Z,23.93
2018-04-13T01:44:57.450Z,23.93
2018-04-13T01:47:23.433Z,23.92
2018-04-13T01:49:49.413Z,23.92
2018-04-13T01:52:15.399Z,23.92
2018-04-13T01:54:41.381Z,23.92
2018-04-13T01:57:07.391Z,23.91
2018-04-13T01:59:33.348Z,23.92
2018-04-13T02:01:59.360Z,23.92
2018-04-13T02:04:25.366Z,23.91
2018-04-13T02:06:51.311Z,23.90
2018-04-13T02:09:17.296Z,23.91
2018-04-13T02:11:43.288Z,23.90
2018-04-13T02:14:09.270Z,23.90
2018-04-13T02:16:35.251Z,23.90
2018-04-13T02:19:01.227Z,23.90
2018-04-13T02:21:27.212Z,23.91
2018-04-13T02:23:53.195Z,23.90
2018-04-13T02:26:19.207Z,23.90
2018-04-13T02:28:45.151Z,23.90
2018-04-13T02:31:11.135Z,23.90
2018-04-13T02:33:37.106Z,23.89
2018-04-13T02:36:03.119Z,23.89
2018-04-13T02:40:55.072Z,23.88
2018-04-13T02:43:21.096Z,23.89
2018-04-13T02:45:47.074Z,23.89
2018-04-13T02:48:13.033Z,23.88
2018-04-13T02:50:39.062Z,23.87
2018-04-13T02:53:05.041Z,23.88
2018-04-13T02:55:31.016Z,23.89
2018-04-13T02:57:56.995Z,23.88
2018-04-13T03:00:22.975Z,23.88
2018-04-13T03:02:48.968Z,23.87
2018-04-13T03:05:14.954Z,23.88
2018-04-13T03:07:40.974Z,23.87
2018-04-13T03:10:06.926Z,23.87
2018-04-13T03:12:32.909Z,23.87
2018-04-13T03:14:58.885Z,23.87
2018-04-13T03:17:24.868Z,23.87
2018-04-13T03:19:50.889Z,23.86
2018-04-13T03:22:16.829Z,23.86
2018-04-13T03:24:42.811Z,23.86
2018-04-13T03:27:08.823Z,23.86
2018-04-13T03:29:34.779Z,23.86
2018-04-13T03:32:00.758Z,23.86
2018-04-13T03:34:26.786Z,23.85
2018-04-13T03:36:52.726Z,23.85
2018-04-13T03:39:18.709Z,23.85
2018-04-13T03:41:44.733Z,23.85
2018-04-13T03:44:10.676Z,23.84
2018-04-13T03:46:36.655Z,23.84
2018-04-13T03:49:02.639Z,23.84
2018-04-13T03:51:28.612Z,23.84
2018-04-13T03:53:54.631Z,23.84
2018-04-13T03:56:20.605Z,23.84
2018-04-13T03:58:46.616Z,23.83
2018-04-13T04:01:12.563Z,23.84
2018-04-13T04:03:38.577Z,23.84
2018-04-13T04:06:04.551Z,23.83
2018-04-13T04:08:31.397Z,23.81
2018-04-13T04:10:57.397Z,23.81
2018-04-13T04:13:23.331Z,23.79
2018-04-13T04:15:49.347Z,23.79
2018-04-13T04:18:15.327Z,23.80
2018-04-13T04:20:41.338Z,23.78
2018-04-13T04:23:07.315Z,23.78
2018-04-13T04:25:33.314Z,23.78
2018-04-13T04:27:59.284Z,23.78
2018-04-13T04:30:25.304Z,23.78
2018-04-13T04:32:51.280Z,23.77
2018-04-13T04:35:17.263Z,23.78
2018-04-13T04:37:43.279Z,23.79
2018-04-13T04:40:09.232Z,23.80
2018-04-13T04:42:35.219Z,23.82
2018-04-13T04:45:01.203Z,23.82
2018-04-13T04:47:27.213Z,23.82
2018-04-13T04:49:53.326Z,23.82
2018-04-13T04:52:19.316Z,23.82
2018-04-13T04:54:45.312Z,23.82
2018-04-13T04:57:11.400Z,23.83
2018-04-13T04:59:37.501Z,23.83
2018-04-13T05:02:03.417Z,23.83
2018-04-13T05:04:29.407Z,23.82
2018-04-13T05:06:55.398Z,23.83
2018-04-13T05:09:21.413Z,23.83
2018-04-13T05:11:47.369Z,23.82
2018-04-13T05:14:13.384Z,23.81
2018-04-13T05:16:39.348Z,23.82
2018-04-13T05:19:05.462Z,23.81
2018-04-13T05:21:31.462Z,23.81
2018-04-13T05:23:57.492Z,23.82
2018-04-13T05:26:23.478Z,23.83
2018-04-13T05:28:49.541Z,23.82
2018-04-13T05:31:15.480Z,23.83
2018-04-13T05:33:41.642Z,23.83
2018-04-13T05:36:07.613Z,23.83
2018-04-13T05:38:33.626Z,23.83
2018-04-13T05:40:59.584Z,23.86
2018-04-13T05:43:25.598Z,23.85
2018-04-13T06:00:52.481Z,23.86
2018-04-13T06:03:26.420Z,23.86
2018-04-13T06:05:52.466Z,23.86
2018-04-13T06:08:18.507Z,23.86
2018-04-13T06:10:44.540Z,23.87
2018-04-13T06:13:13.048Z,23.86
2018-04-13T06:15:39.050Z,23.86
2018-04-13T06:18:05.060Z,23.86
2018-04-13T06:20:31.012Z,23.87
2018-04-13T06:22:57.021Z,23.86
2018-04-13T06:25:22.986Z,23.86
2018-04-13T06:27:48.985Z,23.87
2018-04-13T06:30:15.010Z,23.87
2018-04-13T06:32:40.975Z,23.87
2018-04-13T06:35:06.961Z,23.87
2018-04-13T06:37:32.989Z,23.87
2018-04-13T06:39:58.945Z,23.86
2018-04-13T06:42:24.963Z,23.86
2018-04-13T06:44:50.943Z,23.86
2018-04-13T06:47:16.962Z,23.86
2018-04-13T06:49:42.949Z,23.87
2018-04-13T06:52:08.929Z,23.87
2018-04-13T06:54:34.910Z,23.88
2018-04-13T06:57:00.899Z,23.88
2018-04-13T06:59:26.913Z,23.89
2018-04-13T07:01:52.895Z,23.89
2018-04-13T07:04:18.873Z,23.89
2018-04-13T07:06:44.856Z,23.89
2018-04-13T07:09:10.841Z,23.87
2018-04-13T07:11:36.872Z,23.87
2018-04-13T07:14:02.916Z,23.88
2018-04-13T07:16:28.888Z,23.88
2018-04-13T07:18:54.833Z,23.88
2018-04-13T07:21:20.840Z,23.88
2018-04-13T07:23:46.823Z,23.88
2018-04-13T07:26:12.799Z,23.88
2018-04-13T07:28:38.786Z,23.88
2018-04-13T07:31:04.808Z,23.88
2018-04-13T07:33:30.799Z,23.87
2018-04-13T07:35:56.773Z,23.88
2018-04-13T07:38:22.760Z,23.88
2018-04-13T07:40:48.751Z,23.89
2018-04-13T07:43:14.741Z,23.89
2018-04-13T07:45:40.758Z,23.89
2018-04-13T07:48:06.739Z,23.90
2018-04-13T07:50:32.687Z,23.90
2018-04-13T07:52:58.670Z,23.91
2018-04-13T07:55:24.645Z,23.90
2018-04-13T07:57:50.656Z,23.91
2018-04-13T08:00:16.669Z,23.91
2018-04-13T08:02:42.652Z,23.91
2018-04-13T08:05:08.662Z,23.91
2018-04-13T08:07:34.875Z,23.91
2018-04-13T08:10:00.692Z,23.91
2018-04-13T08:12:26.711Z,23.92
2018-04-13T08:14:52.698Z,23.91
2018-04-13T08:17:18.721Z,23.92
2018-04-13T08:19:44.691Z,23.91
2018-04-13T08:22:10.706Z,23.92
2018-04-13T08:24:36.652Z,23.92
2018-04-13T08:27:02.676Z,23.93
2018-04-13T08:29:28.657Z,23.94
2018-04-13T08:31:54.678Z,23.93
2018-04-13T08:34:20.691Z,23.93
2018-04-13T08:36:46.708Z,23.94
2018-04-13T08:39:12.659Z,23.94
2018-04-13T08:41:38.636Z,23.93
2018-04-13T08:44:04.693Z,23.93
2018-04-13T08:46:30.686Z,23.94
2018-04-13T08:48:56.792Z,23.93
2018-04-13T08:51:22.648Z,23.94
2018-04-13T08:53:48.662Z,23.94
2018-04-13T08:56:14.660Z,23.95
2018-04-13T08:58:40.695Z,23.96
2018-04-13T09:01:06.676Z,23.96
2018-04-13T09:03:32.666Z,23.96
2018-04-13T09:05:58.736Z,23.96
2018-04-13T09:08:24.688Z,23.96
2018-04-13T09:10:50.714Z,23.96
2018-04-13T09:13:16.693Z,23.97
2018-04-13T09:15:42.672Z,23.96
2018-04-13T09:18:08.700Z,23.96
2018-04-13T09:20:34.699Z,23.96
2018-04-13T09:23:00.757Z,23.97
2018-04-13T09:25:26.736Z,23.97
2018-04-13T09:27:52.719Z,23.98
2018-04-13T09:30:18.710Z,23.98
2018-04-13T09:32:44.717Z,23.98
2018-04-13T09:35:10.680Z,23.98
2018-04-13T09:37:37.147Z,24.00
2018-04-13T09:40:03.171Z,24.00
2018-04-13T09:42:29.118Z,24.00
2018-04-13T09:44:55.176Z,24.00
2018-04-13T09:47:21.174Z,24.01
2018-04-13T09:49:47.243Z,24.01
2018-04-13T09:52:13.223Z,24.01
2018-04-13T09:54:39.257Z,24.00
2018-04-13T09:57:05.275Z,23.99
2018-04-13T09:59:31.303Z,24.00
2018-04-13T10:01:57.265Z,24.00
2018-04-13T10:04:23.241Z,24.00
2018-04-13T10:06:49.247Z,24.01
2018-04-13T10:09:15.303Z,24.01
2018-04-13T10:11:41.254Z,24.01
2018-04-13T10:14:07.264Z,24.01
2018-04-13T10:16:33.250Z,24.01
2018-04-13T10:18:59.230Z,24.01
2018-04-13T10:21:25.235Z,24.02
2018-04-13T10:23:51.252Z,24.03
2018-04-13T10:26:17.209Z,24.05
2018-04-13T10:28:43.225Z,24.04
2018-04-13T10:31:09.207Z,24.05
2018-04-13T10:33:35.183Z,24.06
2018-04-13T10:36:01.168Z,24.07
2018-04-13T10:38:27.181Z,24.08
2018-04-13T10:40:53.190Z,24.07
2018-04-13T10:43:19.164Z,24.09
2018-04-13T10:45:45.181Z,24.11
2018-04-13T10:48:11.256Z,24.11
2018-04-13T10:50:37.199Z,24.12
2018-04-13T10:53:03.210Z,24.11
2018-04-13T10:55:29.203Z,24.11
2018-04-13T10:57:55.178Z,24.11
2018-04-13T11:00:21.164Z,24.11
2018-04-13T11:02:47.156Z,24.12
2018-04-13T11:05:13.152Z,24.13
2018-04-13T11:07:39.152Z,24.14
2018-04-13T11:10:05.217Z,24.14
2018-04-13T11:12:31.171Z,24.15
2018-04-13T11:14:57.149Z,24.14
2018-04-13T11:17:23.139Z,24.15
2018-04-13T11:19:49.186Z,24.17
2018-04-13T11:22:15.180Z,24.17
2018-04-13T11:24:41.202Z,24.18
2018-04-13T11:27:07.255Z,24.19
2018-04-13T11:29:33.275Z,24.20
2018-04-13T11:31:59.224Z,24.21
2018-04-13T11:34:25.211Z,24.22
2018-04-13T11:36:51.196Z,24.23
2018-04-13T11:39:17.184Z,24.24
2018-04-13T11:41:43.207Z,24.23
2018-04-13T11:44:09.184Z,24.24
2018-04-13T11:46:35.169Z,24.25
2018-04-13T11:49:01.178Z,24.24
2018-04-13T11:51:27.159Z,24.23
2018-04-13T11:53:53.143Z,24.22
2018-04-13T11:56:19.144Z,24.22
2018-04-13T11:58:45.125Z,24.21
2018-04-13T12:01:11.162Z,24.22
2018-04-13T12:03:37.320Z,24.20
2018-04-13T12:06:03.370Z,24.19
2018-04-13T12:08:29.375Z,24.17
2018-04-13T12:10:55.347Z,24.17
2018-04-13T12:13:21.373Z,24.18
2018-04-13T12:15:47.411Z,24.17
2018-04-13T12:18:13.334Z,24.15
2018-04-13T12:20:39.471Z,24.16
2018-04-13T12:23:05.451Z,24.15
2018-04-13T12:25:31.468Z,24.13
2018-04-13T12:27:57.484Z,24.14
2018-04-13T12:30:23.513Z,24.14
2018-04-13T12:32:49.464Z,24.14
2018-04-13T12:35:15.443Z,24.14
2018-04-13T12:37:41.877Z,24.12
2018-04-13T12:40:07.912Z,24.12
2018-04-13T12:42:33.888Z,24.12
2018-04-13T12:44:59.867Z,24.13
2018-04-13T12:47:26.164Z,24.13
2018-04-13T12:49:52.140Z,24.11
2018-04-13T12:52:18.905Z,24.11
2018-04-13T12:54:45.093Z,24.11
2018-04-13T12:57:10.907Z,24.11
2018-04-13T12:59:36.859Z,24.10
2018-04-13T13:02:03.144Z,24.11
2018-04-13T13:04:29.314Z,24.10
2018-04-13T13:06:56.112Z,24.10
2018-04-13T13:09:22.104Z,24.11
2018-04-13T13:11:48.471Z,24.09
2018-04-13T13:14:15.558Z,24.10
2018-04-13T13:16:41.535Z,24.11
2018-04-13T13:19:07.557Z,24.10
2018-04-13T13:21:33.824Z,24.10
2018-04-13T13:23:59.800Z,24.10
2018-04-13T13:26:25.875Z,24.10
2018-04-13T13:28:51.852Z,24.10
2018-04-13T13:31:17.875Z,24.10
2018-04-13T13:33:43.877Z,24.10
2018-04-13T13:36:09.901Z,24.10
2018-04-13T13:38:35.849Z,24.11
2018-04-13T13:41:01.869Z,24.11
2018-04-13T13:43:27.846Z,24.10
2018-04-13T13:45:53.830Z,24.11
2018-04-13T13:48:19.831Z,24.12
2018-04-13T13:50:45.837Z,24.12
2018-04-13T13:53:11.819Z,24.10
2018-04-13T13:55:37.842Z,24.12
2018-04-13T13:58:03.827Z,24.15
2018-04-13T14:00:29.812Z,24.17
2018-04-13T14:02:55.788Z,24.16
2018-04-13T14:05:21.802Z,24.14
2018-04-13T14:07:47.781Z,24.14
2018-04-13T14:10:13.754Z,24.12
2018-04-13T14:12:39.744Z,24.13
2018-04-13T14:15:05.761Z,24.13
2018-04-13T14:17:31.713Z,24.12
2018-04-13T14:19:57.695Z,24.12
2018-04-13T14:22:23.670Z,24.12
2018-04-13T14:24:49.643Z,24.12
2018-04-13T14:27:15.664Z,24.11
2018-04-13T14:29:41.644Z,24.10
2018-04-13T14:32:07.631Z,24.09
2018-04-13T14:34:33.676Z,24.09
2018-04-13T14:36:59.615Z,24.09
2018-04-13T14:39:25.599Z,24.09
2018-04-13T14:41:51.585Z,24.08
2018-04-13T14:44:17.591Z,24.09
2018-04-13T14:46:43.588Z,24.09
2018-04-13T14:49:09.579Z,24.08
2018-04-13T14:51:35.538Z,24.09
2018-04-13T14:54:01.563Z,24.08
2018-04-13T14:56:27.516Z,24.09
2018-04-13T14:58:53.500Z,24.10
2018-04-13T15:01:19.507Z,24.10
2018-04-13T15:03:45.475Z,24.11
2018-04-13T15:06:11.488Z,24.13
2018-04-13T15:08:37.471Z,24.15
2018-04-13T15:11:03.455Z,24.16
2018-04-13T15:13:29.442Z,24.17
2018-04-13T15:15:55.465Z,24.17
2018-04-13T15:18:21.471Z,24.17
2018-04-13T15:20:47.486Z,24.21
2018-04-13T15:23:13.470Z,24.23
2018-04-13T15:25:39.471Z,24.23
2018-04-13T15:28:05.450Z,24.22
2018-04-13T15:30:31.455Z,24.26
2018-04-13T15:32:57.413Z,24.29
2018-04-13T15:35:23.501Z,24.29
2018-04-13T15:37:49.521Z,24.29
2018-04-13T15:40:15.578Z,24.35
2018-04-13T15:42:41.603Z,24.36
2018-04-13T15:45:07.631Z,24.31
2018-04-13T15:47:33.661Z,24.30
2018-04-13T15:50:00.060Z,24.28
2018-04-13T15:52:26.029Z,24.28
2018-04-13T15:54:52.035Z,24.27
2018-04-13T15:57:18.015Z,24.25
2018-04-13T15:59:43.995Z,24.25
2018-04-13T16:02:09.942Z,24.23
2018-04-13T16:04:35.924Z,24.26
2018-04-13T16:07:01.908Z,24.26
2018-04-13T16:09:27.931Z,24.28
2018-04-13T16:11:53.913Z,24.28
2018-04-13T16:14:19.897Z,24.30
2018-04-13T16:16:46.046Z,24.30
2018-04-13T16:19:12.056Z,24.29
2018-04-13T16:21:38.015Z,24.28
2018-04-13T16:24:04.030Z,24.26
2018-04-13T16:26:30.066Z,24.26
2018-04-13T16:28:56.048Z,24.25
2018-04-13T16:31:22.678Z,24.24
2018-04-13T16:33:48.706Z,24.24
2018-04-13T16:36:14.696Z,24.24
2018-04-13T16:38:40.709Z,24.24
2018-04-13T16:41:06.654Z,24.24
2018-04-13T16:43:32.637Z,24.25
2018-04-13T16:45:58.692Z,24.25
2018-04-13T16:48:24.657Z,24.24
2018-04-13T16:50:53.034Z,24.23
2018-04-13T16:53:21.288Z,24.22
2018-04-13T16:55:47.417Z,24.22
2018-04-13T16:58:13.374Z,24.22
2018-04-13T17:00:39.941Z,24.23
2018-04-13T17:03:05.888Z,24.23
2018-04-13T17:05:31.904Z,24.24
2018-04-13T17:07:57.860Z,24.23
2018-04-13T17:10:23.857Z,24.24
2018-04-13T17:12:49.884Z,24.25
2018-04-13T17:15:15.835Z,24.26
2018-04-13T17:17:41.901Z,24.28
2018-04-13T17:20:07.888Z,24.30
2018-04-13T17:22:33.900Z,24.30
2018-04-13T17:24:59.871Z,24.32
2018-04-13T17:27:25.862Z,24.32
2018-04-13T17:29:51.868Z,24.32
2018-04-13T17:32:17.850Z,24.32
2018-04-13T17:34:43.866Z,24.30
2018-04-13T17:37:09.854Z,24.30
2018-04-13T17:39:35.831Z,24.30
2018-04-13T17:42:01.959Z,24.28
2018-04-13T17:44:27.914Z,24.29
2018-04-13T17:46:54.072Z,24.28
2018-04-13T17:49:20.179Z,24.28
2018-04-13T17:51:46.161Z,24.27
2018-04-13T17:54:12.104Z,24.27
2018-04-13T17:56:38.094Z,24.26
2018-04-13T17:59:04.117Z,24.25
2018-04-13T18:01:30.066Z,24.26
2018-04-13T18:03:56.067Z,24.26
2018-04-13T18:06:22.054Z,24.26
2018-04-13T18:08:48.080Z,24.26
2018-04-13T18:11:14.075Z,24.26
2018-04-13T18:13:40.091Z,24.26
2018-04-13T18:16:06.093Z,24.26
2018-04-13T18:18:32.091Z,24.26
2018-04-13T18:20:58.130Z,24.24
2018-04-13T18:23:24.126Z,24.25
2018-04-13T18:25:50.109Z,24.26
2018-04-13T18:28:16.105Z,24.26
2018-04-13T18:30:42.218Z,24.26
2018-04-13T18:33:08.240Z,24.27
2018-04-13T18:35:34.220Z,24.28
2018-04-13T18:38:00.232Z,24.28
2018-04-13T18:40:26.213Z,24.28
2018-04-13T18:42:52.353Z,24.27
2018-04-13T18:45:18.335Z,24.26
2018-04-13T18:47:44.352Z,24.25
2018-04-13T18:50:10.308Z,24.23
2018-04-13T18:52:36.325Z,24.22
2018-04-13T18:55:02.305Z,24.22
2018-04-13T18:57:28.599Z,24.22
2018-04-13T18:59:54.587Z,24.24
2018-04-13T19:02:20.578Z,24.23
2018-04-13T19:04:46.604Z,24.23
2018-04-13T19:07:13.896Z,24.23
2018-04-13T19:09:39.888Z,24.23
2018-04-13T19:12:05.927Z,24.23
2018-04-13T19:14:31.937Z,24.22
2018-04-13T19:16:57.994Z,24.21
2018-04-13T19:19:23.988Z,24.20
2018-04-13T19:21:49.978Z,24.18
2018-04-13T19:24:15.992Z,24.17
2018-04-13T19:26:41.953Z,24.17
2018-04-13T19:29:07.932Z,24.16
2018-04-13T19:31:33.925Z,24.16
2018-04-13T19:33:59.925Z,24.15
2018-04-13T19:36:25.931Z,24.14
2018-04-13T19:38:51.933Z,24.13
2018-04-13T19:41:17.957Z,24.13
2018-04-13T19:43:46.988Z,24.12
2018-04-13T19:46:12.971Z,24.12
2018-04-13T19:48:38.929Z,24.12
2018-04-13T19:51:04.943Z,24.12
2018-04-13T19:53:30.995Z,24.11
2018-04-13T19:55:56.942Z,24.10
2018-04-13T19:58:22.968Z,24.10
2018-04-13T20:00:48.949Z,24.10
2018-04-13T20:03:14.964Z,24.10
2018-04-13T20:05:40.944Z,24.10
2018-04-13T20:08:06.893Z,24.09
2018-04-13T20:10:32.916Z,24.09
2018-04-13T20:12:58.899Z,24.08
2018-04-13T20:15:24.881Z,24.10
2018-04-13T20:17:50.936Z,24.09
2018-04-13T20:20:19.556Z,24.09
2018-04-13T20:22:46.081Z,24.08
2018-04-13T20:25:13.127Z,24.09
2018-04-13T20:27:39.685Z,24.09
2018-04-13T20:30:06.238Z,24.08
2018-04-13T20:32:32.219Z,24.08
2018-04-13T20:34:58.244Z,24.08
2018-04-13T20:37:24.224Z,24.07
2018-04-13T20:39:50.209Z,24.08
2018-04-13T20:42:16.197Z,24.07
2018-04-13T20:44:42.190Z,24.07
2018-04-13T20:47:08.213Z,24.07
2018-04-13T20:49:34.197Z,24.07
2018-04-13T20:52:00.160Z,24.05
2018-04-13T20:54:26.163Z,24.05
2018-04-13T20:56:52.115Z,24.07
2018-04-13T20:59:18.109Z,24.04
2018-04-13T21:01:44.087Z,24.04
2018-04-13T21:04:10.131Z,24.04
2018-04-13T21:06:36.094Z,24.04
2018-04-13T21:09:02.107Z,24.03
2018-04-13T21:11:28.066Z,24.04
2018-04-13T21:13:54.084Z,24.03
2018-04-13T21:16:20.040Z,24.03
2018-04-13T21:18:46.052Z,24.03
2018-04-13T21:21:12.059Z,24.03
2018-04-13T21:23:38.001Z,24.02
2018-04-13T21:26:04.029Z,24.02
2018-04-13T21:28:30.048Z,24.02
2018-04-13T21:30:56.030Z,24.02
2018-04-13T21:33:22.020Z,24.02
2018-04-13T21:35:48.029Z,24.01
2018-04-13T21:38:14.035Z,24.02
2018-04-13T21:40:39.997Z,24.01
2018-04-13T21:43:05.981Z,24.01
2018-04-13T21:45:31.976Z,24.00
2018-04-13T21:47:57.989Z,24.00
2018-04-13T21:50:23.968Z,24.01
2018-04-13T21:52:49.957Z,24.00
2018-04-13T21:55:15.940Z,24.00
2018-04-13T21:57:41.996Z,24.00
2018-04-13T22:00:07.935Z,24.00
2018-04-13T22:02:33.925Z,24.00
2018-04-13T22:04:59.939Z,24.00
2018-04-13T22:07:25.918Z,23.99
2018-04-13T22:09:51.904Z,23.99
2018-04-13T22:12:17.884Z,23.99
2018-04-13T22:14:43.883Z,23.99
2018-04-13T22:17:09.896Z,23.98
2018-04-13T22:19:35.917Z,23.98
2018-04-13T22:22:01.866Z,23.98
2018-04-13T22:24:27.883Z,23.98
2018-04-13T22:26:53.863Z,23.98
2018-04-13T22:29:19.804Z,23.98
2018-04-13T22:31:45.789Z,23.98
2018-04-13T22:34:11.810Z,23.98
2018-04-13T22:36:37.749Z,23.98
2018-04-13T22:39:03.767Z,23.98
2018-04-13T22:41:29.715Z,23.98
2018-04-13T22:43:55.690Z,23.97
2018-04-13T22:46:21.741Z,23.97
2018-04-13T22:48:47.717Z,23.97
2018-04-13T22:51:13.680Z,23.97
2018-04-13T22:53:39.696Z,23.97
2018-04-13T22:56:05.640Z,23.96
2018-04-13T22:58:31.624Z,23.96
2018-04-13T23:00:57.595Z,23.96
2018-04-13T23:03:23.590Z,23.96
2018-04-13T23:05:49.561Z,23.96
2018-04-13T23:08:15.547Z,23.96
2018-04-13T23:10:41.527Z,23.95
2018-04-13T23:13:07.514Z,23.95
2018-04-13T23:15:33.495Z,23.95
2018-04-13T23:17:59.509Z,23.94
2018-04-13T23:20:25.483Z,23.94
2018-04-13T23:22:51.466Z,23.94
2018-04-13T23:25:17.489Z,23.94
2018-04-13T23:27:43.442Z,23.95
2018-04-13T23:30:09.428Z,23.95
2018-04-13T23:32:35.403Z,23.94
2018-04-13T23:35:01.414Z,23.94
2018-04-13T23:37:27.425Z,23.94
2018-04-13T23:39:53.367Z,23.94
2018-04-13T23:42:19.345Z,23.94
2018-04-13T23:44:45.363Z,23.94
2018-04-13T23:47:11.301Z,23.93
2018-04-13T23:49:37.324Z,23.93
2018-04-13T23:52:03.306Z,23.93
2018-04-13T23:54:29.313Z,23.93
2018-04-13T23:56:55.292Z,23.93
2018-04-13T23:59:21.268Z,23.92
